This is the latest recevied weather packets stored in our database for station/object KN4MGS. If no packets are shown the sender has not sent any weather packets the latest 10 day(s).
| Time | Temp. | Humidity | Pressure | Rain* | Wind** | Luminosity | Snow |
|---|---|---|---|---|---|---|---|
| 1777898461 | 13.33° C | 81% | 1021.4 hPa | 0 mm | - | 111 W/m² | - |
| 1777898159 | 13.89° C | 78% | 1021.6 hPa | 0 mm | - | 99 W/m² | - |
| 1777897856 | 13.33° C | 78% | 1021.4 hPa | 0 mm | - | 71 W/m² | - |
| 1777897552 | 12.78° C | 80% | 1021.3 hPa | 0 mm | - | 50 W/m² | - |
| 1777897248 | 11.67° C | 84% | 1021.2 hPa | 0 mm | - | 48 W/m² | - |
| 1777896944 | 10.56° C | 89% | 1021.2 hPa | 0 mm | - | 45 W/m² | - |
| 1777896641 | 8.89° C | 91% | 1021.3 hPa | 0 mm | - | 43 W/m² | - |
| 1777896338 | 8.33° C | 94% | 1021.5 hPa | 0 mm | - | 42 W/m² | - |
| 1777896036 | 7.78° C | 95% | 1021.4 hPa | 0 mm | - | 40 W/m² | - |
| 1777895733 | 7.78° C | 97% | 1021.4 hPa | 0 mm | - | 39 W/m² | - |
| 1777895430 | 7.78° C | 99% | 1021.3 hPa | 0 mm | - | 37 W/m² | - |
| 1777895128 | 6.67° C | 99% | 1021.2 hPa | 0 mm | - | 37 W/m² | - |
| 1777894826 | 5.56° C | 99% | 1021 hPa | 0 mm | - | 35 W/m² | - |
| 1777894522 | 5° C | 99% | 1021.3 hPa | 0 mm | - | 34 W/m² | - |
| 1777894220 | 4.44° C | 99% | 1021.4 hPa | 0 mm | - | 32 W/m² | - |
| 1777893916 | 4.44° C | 99% | 1021.6 hPa | 0 mm | - | 31 W/m² | - |
| 1777893613 | 3.89° C | 99% | 1021.6 hPa | 0 mm | - | 30 W/m² | - |
| 1777893309 | 3.89° C | 99% | 1021.5 hPa | 0 mm | - | 28 W/m² | - |
| 1777893005 | 3.89° C | 99% | 1021.5 hPa | 0 mm | - | 24 W/m² | - |
| 1777892703 | 3.89° C | 99% | 1021.5 hPa | 0 mm | - | 20 W/m² | - |
| 1777892398 | 3.89° C | 99% | 1021.5 hPa | 0 mm | - | 18 W/m² | - |
| 1777892094 | 3.89° C | 99% | 1021.4 hPa | 0 mm | - | 13 W/m² | - |
| 1777891791 | 3.89° C | 99% | 1021.4 hPa | 0 mm | - | 11 W/m² | - |
| 1777891489 | 3.33° C | 99% | 1021.2 hPa | 0 mm | - | 9 W/m² | - |
| 1777891184 | 3.33° C | 99% | 1021.1 hPa | 0 mm | - | 6 W/m² | - |
* Rain latest hour (hover to see other rain measurements)
** Current wind speed in m/s (hover to see current wind gust speed)